createdAt,value
2022-12-28T00:01:18.616Z,100760.36
2022-12-28T00:03:45.665Z,100752.45
2022-12-28T00:06:13.008Z,100758.29
2022-12-28T00:08:40.637Z,100755.20
2022-12-28T00:11:18.671Z,100754.68
2022-12-28T00:13:52.009Z,100754.85
2022-12-28T00:16:26.259Z,100755.36
2022-12-28T00:18:53.370Z,100749.02
2022-12-28T00:21:20.337Z,100749.40
2022-12-28T00:23:49.487Z,100751.80
2022-12-28T00:26:16.673Z,100757.31
2022-12-28T00:28:43.942Z,100754.73
2022-12-28T00:31:11.169Z,100757.96
2022-12-28T00:33:38.411Z,100758.98
2022-12-28T00:36:06.495Z,100757.95
2022-12-28T00:38:35.805Z,100762.58
2022-12-28T00:41:03.048Z,100761.88
2022-12-28T00:43:30.385Z,100762.89
2022-12-28T00:45:59.222Z,100762.88
2022-12-28T00:48:26.935Z,100764.62
2022-12-28T00:50:53.985Z,100773.23
2022-12-28T00:53:21.235Z,100773.21
2022-12-28T00:55:48.600Z,100770.27
2022-12-28T00:58:15.542Z,100772.14
2022-12-28T01:00:42.750Z,100769.21
2022-12-28T01:03:09.856Z,100774.88
2022-12-28T01:05:39.895Z,100775.72
2022-12-28T01:08:08.952Z,100774.17
2022-12-28T01:10:35.904Z,100771.41
2022-12-28T01:13:02.855Z,100769.86
2022-12-28T01:15:29.938Z,100770.21
2022-12-28T01:17:57.151Z,100770.69
2022-12-28T01:20:24.205Z,100771.20
2022-12-28T01:22:51.189Z,100766.72
2022-12-28T01:25:18.518Z,100769.30
2022-12-28T01:27:45.642Z,100767.91
2022-12-28T01:30:16.216Z,100765.48
2022-12-28T01:32:43.504Z,100761.35
2022-12-28T01:35:11.590Z,100758.60
2022-12-28T01:37:38.589Z,100757.91
2022-12-28T01:40:06.866Z,100759.64
2022-12-28T01:42:33.807Z,100758.96
2022-12-28T01:45:17.715Z,100756.05
2022-12-28T01:47:44.971Z,100754.85
2022-12-28T01:50:16.817Z,100753.30
2022-12-28T01:52:47.962Z,100752.09
2022-12-28T01:55:18.594Z,100756.05
2022-12-28T01:57:50.092Z,100757.05
2022-12-28T02:00:19.307Z,100762.90
2022-12-28T02:02:52.968Z,100760.84
2022-12-28T02:05:22.939Z,100758.27
2022-12-28T02:07:59.936Z,100757.77
2022-12-28T02:10:40.500Z,100760.52
2022-12-28T02:13:10.060Z,100758.80
2022-12-28T02:15:37.375Z,100754.50
2022-12-28T02:18:05.149Z,100752.27
2022-12-28T02:20:38.154Z,100750.55
2022-12-28T02:23:36.812Z,100745.55
2022-12-28T02:26:42.669Z,100743.14
2022-12-28T02:29:23.529Z,100736.05
2022-12-28T02:31:57.865Z,100732.95
2022-12-28T02:34:29.719Z,100727.61
2022-12-28T02:37:02.081Z,100729.67
2022-12-28T02:39:35.124Z,100735.50
2022-12-28T02:42:03.020Z,100737.56
2022-12-28T02:44:49.961Z,100733.44
2022-12-28T02:47:36.688Z,100735.49
2022-12-28T02:50:09.778Z,100734.59
2022-12-28T02:52:59.887Z,100729.73
2022-12-28T02:56:04.186Z,100726.96
2022-12-28T02:58:55.283Z,100726.17
2022-12-28T03:01:43.199Z,100728.82
2022-12-28T03:04:20.129Z,100726.34
2022-12-28T03:07:12.008Z,100724.54
2022-12-28T03:09:45.647Z,100732.06
2022-12-28T03:12:19.712Z,100732.38
2022-12-28T03:14:53.448Z,100735.44
2022-12-28T03:17:41.290Z,100732.13
2022-12-28T03:20:30.855Z,100730.57
2022-12-28T03:23:19.105Z,100730.04
2022-12-28T03:26:06.084Z,100733.80
2022-12-28T03:28:57.028Z,100728.44
2022-12-28T03:31:28.625Z,100729.75
2022-12-28T03:34:07.033Z,100733.64
2022-12-28T03:36:54.829Z,100727.95
2022-12-28T03:39:32.071Z,100727.61
2022-12-28T03:42:23.321Z,100723.82
2022-12-28T03:45:01.337Z,100715.23
2022-12-28T03:47:30.897Z,100718.64
2022-12-28T03:49:59.430Z,100713.30
2022-12-28T03:52:26.648Z,100708.45
2022-12-28T03:54:54.194Z,100702.23
2022-12-28T03:57:23.272Z,100694.49
2022-12-28T03:59:50.529Z,100684.02
2022-12-28T04:02:18.524Z,100670.63
2022-12-28T04:04:47.351Z,100669.23
2022-12-28T04:07:14.408Z,100666.30
2022-12-28T04:09:41.748Z,100670.38
2022-12-28T04:12:09.533Z,100667.78
2022-12-28T04:14:59.399Z,100667.23
2022-12-28T04:17:26.447Z,100663.92
2022-12-28T04:19:53.434Z,100666.14
2022-12-28T04:22:20.854Z,100672.60
2022-12-28T04:24:48.305Z,100672.70
2022-12-28T04:27:16.075Z,100669.21
2022-12-28T04:29:43.425Z,100663.16
2022-12-28T04:32:17.996Z,100664.82
2022-12-28T04:34:48.673Z,100669.40
2022-12-28T04:37:17.836Z,100665.27
2022-12-28T04:39:55.477Z,100667.48
2022-12-28T04:42:24.887Z,100671.22
2022-12-28T04:44:51.938Z,100670.84
2022-12-28T04:47:19.192Z,100676.97
2022-12-28T04:49:46.336Z,100679.36
2022-12-28T04:52:13.482Z,100675.63
2022-12-28T04:54:40.426Z,100673.73
2022-12-28T04:57:07.680Z,100670.44
2022-12-28T04:59:35.135Z,100670.75
2022-12-28T05:02:02.390Z,100673.65
2022-12-28T05:04:29.560Z,100674.48
2022-12-28T05:06:57.002Z,100668.59
2022-12-28T05:09:24.046Z,100668.03
2022-12-28T05:11:51.708Z,100665.40
2022-12-28T05:14:18.819Z,100662.48
2022-12-28T05:16:45.805Z,100660.40
2022-12-28T05:19:12.961Z,100661.23
2022-12-28T05:21:40.346Z,100659.81
2022-12-28T05:24:08.652Z,100658.77
2022-12-28T05:26:36.370Z,100656.13
2022-12-28T05:29:03.342Z,100660.52
2022-12-28T05:31:30.801Z,100669.20
2022-12-28T05:33:58.282Z,100667.90
2022-12-28T05:36:27.088Z,100665.22
2022-12-28T05:38:55.239Z,100662.23
2022-12-28T05:41:25.006Z,100657.89
2022-12-28T05:43:52.674Z,100655.58
2022-12-28T05:46:24.357Z,100657.91
2022-12-28T05:48:51.968Z,100655.42
2022-12-28T05:51:21.492Z,100648.54
2022-12-28T05:53:48.742Z,100645.20
2022-12-28T05:56:18.745Z,100638.50
2022-12-28T05:58:47.427Z,100628.20
2022-12-28T06:01:17.346Z,100637.41
2022-12-28T06:03:45.736Z,100635.30
2022-12-28T06:06:15.289Z,100644.00
2022-12-28T06:08:44.019Z,100647.75
2022-12-28T06:11:13.001Z,100640.35
2022-12-28T06:13:40.650Z,100636.90
2022-12-28T06:16:13.357Z,100634.48
2022-12-28T06:18:40.992Z,100633.59
2022-12-28T06:21:10.090Z,100639.73
2022-12-28T06:23:37.570Z,100641.23
2022-12-28T06:26:08.571Z,100641.69
2022-12-28T06:28:37.704Z,100636.88
2022-12-28T06:31:10.198Z,100630.86
2022-12-28T06:33:37.317Z,100634.59
2022-12-28T06:36:04.749Z,100634.55
2022-12-28T06:38:34.652Z,100629.73
2022-12-28T06:41:14.477Z,100631.27
2022-12-28T06:43:43.451Z,100633.63
2022-12-28T06:46:11.797Z,100627.64
2022-12-28T06:48:38.993Z,100624.23
2022-12-28T06:51:08.599Z,100620.48
2022-12-28T06:53:38.859Z,100624.40
2022-12-28T06:56:08.262Z,100623.53
2022-12-28T06:58:35.347Z,100622.33
2022-12-28T07:01:09.487Z,100619.59
2022-12-28T07:03:36.992Z,100615.14
2022-12-28T07:06:05.402Z,100616.17
2022-12-28T07:08:32.813Z,100613.27
2022-12-28T07:11:05.096Z,100615.03
2022-12-28T07:13:32.386Z,100609.81
2022-12-28T07:16:02.509Z,100607.98
2022-12-28T07:18:30.888Z,100599.79
2022-12-28T07:21:03.788Z,100598.13
2022-12-28T07:23:31.535Z,100598.16
2022-12-28T07:25:59.094Z,100595.73
2022-12-28T07:28:26.374Z,100592.18
2022-12-28T07:30:53.710Z,100584.20
2022-12-28T07:33:20.956Z,100586.48
2022-12-28T07:35:48.204Z,100580.38
2022-12-28T07:38:20.921Z,100575.65
2022-12-28T07:40:49.288Z,100576.35
2022-12-28T07:43:16.219Z,100579.47
2022-12-28T07:45:43.281Z,100583.00
2022-12-28T07:48:10.384Z,100581.83
2022-12-28T07:50:38.112Z,100582.55
2022-12-28T07:53:05.280Z,100580.54
2022-12-28T07:55:32.776Z,100578.03
2022-12-28T07:57:59.821Z,100581.82
2022-12-28T08:00:26.827Z,100577.52
2022-12-28T08:02:56.078Z,100584.54
2022-12-28T08:05:23.184Z,100584.38
2022-12-28T08:07:50.149Z,100585.64
2022-12-28T08:10:17.290Z,100581.11
2022-12-28T08:12:44.463Z,100576.73
2022-12-28T08:15:12.843Z,100574.67
2022-12-28T08:17:39.883Z,100566.96
2022-12-28T08:20:07.833Z,100565.58
2022-12-28T08:22:34.873Z,100566.63
2022-12-28T08:25:01.954Z,100565.65
2022-12-28T08:27:33.553Z,100560.18
2022-12-28T08:30:03.738Z,100562.95
2022-12-28T08:32:30.785Z,100567.50
2022-12-28T08:34:57.924Z,100563.95
2022-12-28T08:37:25.123Z,100561.96
2022-12-28T08:39:52.387Z,100564.05
2022-12-28T08:42:19.459Z,100564.38
2022-12-28T08:44:46.468Z,100569.18
2022-12-28T08:47:13.426Z,100564.67
2022-12-28T08:49:40.511Z,100564.45
2022-12-28T08:52:07.986Z,100564.58
2022-12-28T08:54:34.901Z,100564.92
2022-12-28T08:57:01.935Z,100559.89
2022-12-28T08:59:29.148Z,100555.13
2022-12-28T09:01:56.237Z,100541.48
2022-12-28T09:04:24.417Z,100545.68
2022-12-28T09:06:52.066Z,100556.05
2022-12-28T09:09:21.041Z,100554.04
2022-12-28T09:11:49.004Z,100555.27
2022-12-28T09:14:23.269Z,100556.48
2022-12-28T09:16:51.640Z,100552.04
2022-12-28T09:19:18.762Z,100552.39
2022-12-28T09:21:49.075Z,100554.45
2022-12-28T09:24:16.679Z,100547.23
2022-12-28T09:26:43.801Z,100544.00
2022-12-28T09:29:12.512Z,100540.39
2022-12-28T09:31:41.452Z,100543.48
2022-12-28T09:37:00.932Z,100533.69
2022-12-28T09:39:28.010Z,100520.47
2022-12-28T09:41:58.663Z,100513.56
2022-12-28T09:44:40.024Z,100504.11
2022-12-28T09:47:17.619Z,100504.61
2022-12-28T09:49:53.235Z,100499.59
2022-12-28T09:52:36.434Z,100495.12
2022-12-28T09:55:12.995Z,100489.92
2022-12-28T09:57:43.468Z,100483.71
2022-12-28T10:00:19.589Z,100479.38
2022-12-28T10:02:50.545Z,100467.14
2022-12-28T10:05:18.460Z,100462.29
2022-12-28T10:07:45.895Z,100458.80
2022-12-28T10:10:18.359Z,100451.89
2022-12-28T10:12:46.781Z,100454.83
2022-12-28T10:15:17.402Z,100455.17
2022-12-28T10:17:45.725Z,100447.75
2022-12-28T10:20:20.031Z,100447.40
2022-12-28T10:22:51.040Z,100443.25
2022-12-28T10:25:20.382Z,100442.04
2022-12-28T10:27:47.567Z,100446.50
2022-12-28T10:30:24.105Z,100442.70
2022-12-28T10:33:02.140Z,100437.19
2022-12-28T10:35:36.241Z,100431.35
2022-12-28T10:38:07.596Z,100422.91
2022-12-28T10:40:38.202Z,100419.27
2022-12-28T10:43:10.821Z,100422.20
2022-12-28T10:45:41.974Z,100412.92
2022-12-28T10:48:16.415Z,100422.61
2022-12-28T10:50:50.962Z,100418.83
2022-12-28T10:53:29.433Z,100412.50
2022-12-28T10:56:07.129Z,100408.23
2022-12-28T10:58:34.552Z,100402.91
2022-12-28T11:01:05.040Z,100394.31
2022-12-28T11:03:35.515Z,100387.95
2022-12-28T11:06:21.230Z,100380.23
2022-12-28T11:09:17.437Z,100373.89
2022-12-28T11:11:46.345Z,100370.98
2022-12-28T11:14:19.263Z,100365.98
2022-12-28T11:16:46.702Z,100361.85
2022-12-28T11:19:14.586Z,100354.44
2022-12-28T11:21:43.116Z,100351.02
2022-12-28T11:24:16.246Z,100353.96
2022-12-28T11:26:45.950Z,100347.29
2022-12-28T11:29:17.069Z,100345.42
2022-12-28T11:31:50.408Z,100338.54
2022-12-28T11:34:21.551Z,100346.64
2022-12-28T11:36:50.470Z,100349.57
2022-12-28T11:39:50.255Z,100349.04
2022-12-28T11:42:56.535Z,100335.09
2022-12-28T11:45:54.641Z,100335.77
2022-12-28T11:48:49.825Z,100326.66
2022-12-28T11:51:21.167Z,100326.80
2022-12-28T11:54:00.113Z,100325.07
2022-12-28T11:56:49.322Z,100321.45
2022-12-28T11:59:30.842Z,100313.89
2022-12-28T12:02:02.265Z,100311.48
2022-12-28T12:04:41.554Z,100302.19
2022-12-28T12:07:18.582Z,100297.35
2022-12-28T12:09:47.183Z,100289.45
2022-12-28T12:12:38.669Z,100276.89
2022-12-28T12:15:16.977Z,100274.50
2022-12-28T12:17:49.755Z,100267.45
2022-12-28T12:20:29.912Z,100264.52
2022-12-28T12:23:02.901Z,100254.72
2022-12-28T12:25:38.559Z,100247.84
2022-12-28T12:28:12.087Z,100243.54
2022-12-28T12:30:39.564Z,100235.44
2022-12-28T12:33:12.618Z,100231.63
2022-12-28T12:35:51.125Z,100228.17
2022-12-28T12:38:33.277Z,100228.36
2022-12-28T12:41:18.566Z,100228.52
2022-12-28T12:43:56.729Z,100226.80
2022-12-28T12:46:45.254Z,100219.23
2022-12-28T12:49:38.127Z,100213.88
2022-12-28T12:52:15.944Z,100218.71
2022-12-28T12:54:58.402Z,100222.17
2022-12-28T12:57:34.072Z,100221.16
2022-12-28T13:00:16.388Z,100213.08
2022-12-28T13:03:03.129Z,100209.98
2022-12-28T13:05:33.112Z,100204.70
2022-12-28T13:08:01.810Z,100198.20
2022-12-28T13:10:32.781Z,100193.25
2022-12-28T13:13:02.152Z,100189.83
2022-12-28T13:15:30.380Z,100180.06
2022-12-28T13:20:59.835Z,100180.27
2022-12-28T13:23:27.995Z,100184.73
2022-12-28T13:25:57.537Z,100176.66
2022-12-28T13:28:28.719Z,100176.33
2022-12-28T13:31:03.521Z,100167.05
2022-12-28T13:33:31.356Z,100160.17
2022-12-28T13:36:14.846Z,100157.27
2022-12-28T13:38:42.251Z,100153.66
2022-12-28T13:41:19.018Z,100154.53
2022-12-28T13:44:23.857Z,100151.27
2022-12-28T13:46:59.842Z,100147.48
2022-12-28T13:49:29.761Z,100143.70
2022-12-28T13:51:57.570Z,100144.20
2022-12-28T13:54:26.099Z,100145.58
2022-12-28T13:57:14.684Z,100140.26
2022-12-28T13:59:44.300Z,100131.14
2022-12-28T14:02:20.941Z,100130.11
2022-12-28T14:04:53.644Z,100131.85
2022-12-28T14:07:24.418Z,100134.27
2022-12-28T14:09:55.408Z,100122.73
2022-12-28T14:12:24.960Z,100126.02
2022-12-28T14:14:53.043Z,100129.47
2022-12-28T14:17:20.639Z,100120.55
2022-12-28T14:19:48.319Z,100118.83
2022-12-28T14:22:33.647Z,100120.55
2022-12-28T14:25:06.553Z,100116.61
2022-12-28T14:27:36.517Z,100112.14
2022-12-28T14:30:05.167Z,100108.73
2022-12-28T14:32:37.600Z,100105.85
2022-12-28T14:35:16.845Z,100100.91
2022-12-28T14:37:46.690Z,100098.56
2022-12-28T14:40:24.190Z,100098.21
2022-12-28T14:42:54.652Z,100097.73
2022-12-28T14:48:35.182Z,100097.08
2022-12-28T14:51:05.298Z,100102.23
2022-12-28T14:53:33.229Z,100094.49
2022-12-28T14:56:05.713Z,100086.23
2022-12-28T14:58:40.444Z,100077.42
2022-12-28T15:00:25.477Z,100100.67
2022-12-28T15:01:10.494Z,100073.99
2022-12-28T15:03:52.460Z,100071.56
2022-12-28T15:06:21.097Z,100066.73
2022-12-28T15:08:52.638Z,100067.42
2022-12-28T15:11:20.850Z,100063.84
2022-12-28T15:13:48.208Z,100071.22
2022-12-28T15:16:17.865Z,100075.52
2022-12-28T15:18:45.909Z,100076.72
2022-12-28T15:21:15.767Z,100076.02
2022-12-28T15:23:44.407Z,100071.55
2022-12-28T15:26:16.280Z,100061.58
2022-12-28T15:28:43.725Z,100069.30
2022-12-28T15:31:12.915Z,100062.58
2022-12-28T15:33:40.903Z,100064.45
2022-12-28T15:36:17.116Z,100056.89
2022-12-28T15:38:44.934Z,100064.95
2022-12-28T15:41:26.045Z,100064.09
2022-12-28T15:43:53.068Z,100059.29
2022-12-28T15:46:20.833Z,100067.02
2022-12-28T15:48:50.560Z,100061.16
2022-12-28T15:51:18.166Z,100061.33
2022-12-28T15:53:45.351Z,100060.28
2022-12-28T15:56:23.829Z,100060.79
2022-12-28T15:58:53.374Z,100050.45
2022-12-28T16:01:20.420Z,100049.41
2022-12-28T16:03:49.544Z,100043.21
2022-12-28T16:06:16.714Z,100054.36
2022-12-28T16:08:43.791Z,100056.26
2022-12-28T16:11:16.205Z,100048.50
2022-12-28T16:13:44.001Z,100051.09
2022-12-28T16:16:13.613Z,100043.71
2022-12-28T16:18:41.036Z,100046.80
2022-12-28T16:21:10.737Z,100047.48
2022-12-28T16:23:40.418Z,100035.98
2022-12-28T16:26:09.901Z,100042.33
2022-12-28T16:28:37.168Z,100038.20
2022-12-28T16:31:05.418Z,100035.27
2022-12-28T16:33:32.916Z,100031.48
2022-12-28T16:36:00.209Z,100028.91
2022-12-28T16:38:29.934Z,100032.34
2022-12-28T16:40:57.782Z,100033.54
2022-12-28T16:43:25.563Z,100032.84
2022-12-28T16:45:52.885Z,100035.23
2022-12-28T16:48:20.080Z,100031.43
2022-12-28T16:50:58.458Z,100034.68
2022-12-28T16:53:25.733Z,100031.58
2022-12-28T16:55:52.959Z,100031.39
2022-12-28T16:58:20.069Z,100032.76
2022-12-28T17:00:47.389Z,100032.39
2022-12-28T17:03:15.188Z,100024.99
2022-12-28T17:05:42.176Z,100022.88
2022-12-28T17:08:10.102Z,100025.56
2022-12-28T17:10:41.766Z,100015.90
2022-12-28T17:13:08.765Z,100017.27
2022-12-28T17:15:36.584Z,100014.70
2022-12-28T17:18:03.659Z,100016.06
2022-12-28T17:20:30.695Z,100017.61
2022-12-28T17:22:57.791Z,100016.06
2022-12-28T17:25:24.721Z,100009.18
2022-12-28T17:27:52.002Z,100012.41
2022-12-28T17:30:19.677Z,100012.70
2022-12-28T17:32:46.640Z,100014.89
2022-12-28T17:35:15.169Z,100008.32
2022-12-28T17:37:42.437Z,100009.30
2022-12-28T17:40:11.774Z,100004.80
2022-12-28T17:42:38.974Z,100006.71
2022-12-28T17:45:11.519Z,99997.63
2022-12-28T17:47:39.190Z,99998.17
2022-12-28T17:50:07.046Z,99995.09
2022-12-28T17:52:34.224Z,99990.77
2022-12-28T17:55:01.414Z,99991.24
2022-12-28T17:57:28.946Z,99992.75
2022-12-28T17:59:57.068Z,99991.15
2022-12-28T18:02:24.399Z,99988.52
2022-12-28T18:04:51.762Z,99986.10
2022-12-28T18:07:18.836Z,99982.84
2022-12-28T18:09:47.093Z,99987.50
2022-12-28T18:12:14.275Z,99985.63
2022-12-28T18:14:41.353Z,99986.86
2022-12-28T18:17:08.397Z,99987.74
2022-12-28T18:19:35.607Z,99983.95
2022-12-28T18:22:02.547Z,99984.97
2022-12-28T18:24:29.591Z,99988.73
2022-12-28T18:26:56.840Z,99985.10
2022-12-28T18:29:23.831Z,99985.77
2022-12-28T18:31:50.917Z,99981.77
2022-12-28T18:34:18.075Z,99974.70
2022-12-28T18:36:45.036Z,99975.90
2022-12-28T18:39:12.089Z,99975.23
2022-12-28T18:41:39.837Z,99976.65
2022-12-28T18:44:07.297Z,99969.09
2022-12-28T18:46:34.341Z,99977.16
2022-12-28T18:49:02.092Z,99970.39
2022-12-28T18:51:29.461Z,99974.80
2022-12-28T18:53:56.631Z,99965.10
2022-12-28T18:56:24.508Z,99970.90
2022-12-28T18:58:56.857Z,99967.56
2022-12-28T19:02:05.222Z,99970.76
2022-12-28T19:04:14.005Z,99964.34
2022-12-28T19:06:41.703Z,99960.67
2022-12-28T19:09:09.733Z,99961.14
2022-12-28T19:11:37.817Z,99960.91
2022-12-28T19:14:05.669Z,99964.13
2022-12-28T19:16:33.066Z,99967.89
2022-12-28T19:19:00.524Z,99965.96
2022-12-28T19:21:32.901Z,99961.59
2022-12-28T19:24:03.283Z,99960.70
2022-12-28T19:26:31.113Z,99956.71
2022-12-28T19:28:59.293Z,99954.27
2022-12-28T19:31:26.846Z,99956.84
2022-12-28T19:33:54.946Z,99953.55
2022-12-28T19:36:22.173Z,99946.83
2022-12-28T19:38:49.372Z,99948.02
2022-12-28T19:41:17.435Z,99948.88
2022-12-28T19:43:45.145Z,99949.55
2022-12-28T19:46:14.433Z,99939.88
2022-12-28T19:48:41.906Z,99942.27
2022-12-28T19:51:09.594Z,99944.14
2022-12-28T19:53:37.463Z,99941.04
2022-12-28T19:56:08.999Z,99942.23
2022-12-28T19:58:39.098Z,99935.98
2022-12-28T20:01:11.717Z,99936.98
2022-12-28T20:03:39.393Z,99929.05
2022-12-28T20:06:12.383Z,99928.54
2022-12-28T20:08:40.255Z,99927.16
2022-12-28T20:11:08.875Z,99922.69
2022-12-28T20:13:36.503Z,99917.70
2022-12-28T20:16:03.673Z,99917.23
2022-12-28T20:18:31.066Z,99916.69
2022-12-28T20:21:20.359Z,99921.47
2022-12-28T20:23:48.939Z,99920.60
2022-12-28T20:26:17.347Z,99923.73
2022-12-28T20:28:44.968Z,99927.16
2022-12-28T20:31:15.195Z,99930.76
2022-12-28T20:33:43.440Z,99933.84
2022-12-28T20:36:12.930Z,99934.34
2022-12-28T20:38:40.190Z,99935.02
2022-12-28T20:41:09.756Z,99936.23
2022-12-28T20:43:37.212Z,99939.16
2022-12-28T20:46:04.316Z,99938.65
2022-12-28T20:48:31.777Z,99937.27
2022-12-28T20:51:02.263Z,99941.25
2022-12-28T20:53:30.429Z,99939.20
2022-12-28T20:56:06.231Z,99940.22
2022-12-28T20:58:33.273Z,99937.98
2022-12-28T21:01:05.847Z,99935.05
2022-12-28T21:03:33.166Z,99928.02
2022-12-28T21:06:00.937Z,99927.85
2022-12-28T21:08:30.805Z,99928.35
2022-12-28T21:10:58.335Z,99924.21
2022-12-28T21:13:25.704Z,99924.55
2022-12-28T21:15:53.112Z,99919.05
2022-12-28T21:18:22.771Z,99917.88
2022-12-28T21:20:50.990Z,99918.92
2022-12-28T21:23:18.858Z,99916.13
2022-12-28T21:25:45.921Z,99914.72
2022-12-28T21:28:13.138Z,99911.59
2022-12-28T21:30:40.300Z,99907.77
2022-12-28T21:33:07.685Z,99908.10
2022-12-28T21:35:35.505Z,99901.04
2022-12-28T21:38:02.684Z,99902.41
2022-12-28T21:40:30.637Z,99897.42
2022-12-28T21:42:57.850Z,99890.70
2022-12-28T21:45:27.458Z,99889.48
2022-12-28T21:47:54.556Z,99894.14
2022-12-28T21:50:21.600Z,99891.55
2022-12-28T21:52:50.128Z,99893.61
2022-12-28T21:55:34.895Z,99894.32
2022-12-28T21:58:02.380Z,99892.25
2022-12-28T22:00:47.160Z,99897.93
2022-12-28T22:03:33.177Z,99897.08
2022-12-28T22:06:05.228Z,99894.14
2022-12-28T22:08:54.023Z,99891.05
2022-12-28T22:11:39.443Z,99886.45
2022-12-28T22:14:08.031Z,99884.75
2022-12-28T22:16:36.425Z,99888.20
2022-12-28T22:19:07.018Z,99884.24
2022-12-28T22:21:36.215Z,99888.04
2022-12-28T22:24:03.270Z,99889.25
2022-12-28T22:26:30.398Z,99892.73
2022-12-28T22:28:57.788Z,99893.42
2022-12-28T22:31:24.807Z,99892.58
2022-12-28T22:33:53.376Z,99892.92
2022-12-28T22:36:21.345Z,99890.50
2022-12-28T22:38:48.784Z,99890.34
2022-12-28T22:41:15.867Z,99895.86
2022-12-28T22:43:43.270Z,99897.08
2022-12-28T22:46:12.045Z,99888.65
2022-12-28T22:48:39.520Z,99881.59
2022-12-28T22:51:08.162Z,99878.83
2022-12-28T22:53:36.620Z,99880.37
2022-12-28T22:56:05.922Z,99875.35
2022-12-28T22:58:33.319Z,99876.55
2022-12-28T23:01:09.055Z,99875.84
2022-12-28T23:03:38.061Z,99869.09
2022-12-28T23:06:05.140Z,99867.88
2022-12-28T23:08:32.212Z,99864.92
2022-12-28T23:11:02.011Z,99857.69
2022-12-28T23:13:29.363Z,99858.54
2022-12-28T23:16:01.844Z,99857.67
2022-12-28T23:18:47.015Z,99853.54
2022-12-28T23:21:39.637Z,99850.95
2022-12-28T23:24:39.962Z,99853.02
2022-12-28T23:27:23.653Z,99856.46
2022-12-28T23:29:51.535Z,99850.62
2022-12-28T23:32:18.768Z,99854.58
2022-12-28T23:34:45.833Z,99854.58
2022-12-28T23:37:12.758Z,99859.39
2022-12-28T23:39:39.894Z,99854.74
2022-12-28T23:42:07.058Z,99858.20
2022-12-28T23:44:34.173Z,99857.33
2022-12-28T23:47:01.215Z,99851.62
2022-12-28T23:49:28.608Z,99849.35
2022-12-28T23:51:55.661Z,99842.61
2022-12-28T23:54:23.176Z,99842.92
2022-12-28T23:56:50.902Z,99838.77
2022-12-28T23:59:18.091Z,99833.57
